En poursuivant votre navigation sur ce site, vous acceptez l'utilisation de cookies pour vous proposer des contenus et services adaptés. Mentions légales.
Texte à méditer :  

27/11/2021 l'Ain en vigilance neige/verglas❄️ demain dimanche 28/11  : cliquez ICI
21/11/2021 Mise à jour des tableaux d'analyses décadaires : rubrique climatologie
03/11/2021 Mise en ligne de la synthèse climatologique d'octobre 2021 : cliquez ICI
02/11/2021 Mise à jour des tableaux d'analyses décadaires, mensuelles et annuelles : rubrique climatologie
  

NOAA COMPLET DU MOIS

Si l'entête du tableau ne s'affiche pas correctement, => actualisez la page (F5 avec Internet Explorer, Chrome...).
Utilisez l'ascenseur sur la droite des lignes du tableau pour faire défiler verticalement les jours du mois.

TABLEAU DES DONNEES COMPLETES NOAA de NOVEMBRE 2020

DATE TEMPERATURE
sous abri
TEMPARATURE 
au sol
VENT  et  Indice de Refroidissement Eolien  PRECIPITATIONS (en mm/m2)
et Intensité
PRESSION ATMOSPHERIQUE (en hPa) HUMIDITE de l'AIR RADIATIONS SOLAIRES (en W/m2)
Mini Moy. Maxi Mini Moy. Maxi Moyen Rafale I.R.E.
Minii
Précip. jour Cumul mois Intensité Maxi Mini Moy. Maxi Mini Moy. Maxi Pic maxi du jour Total jour
01/11/20 9.9° 14.2° 19.2° 8.3° 14.6° 23.3° 4.5km/h dir SE 16.1km/h dir SSE 9.7° 0 0 1019.5 1020.9 1022.6 67% 82.6% 94% 606 18 628
02/11/20 14.2° 16.6° 21.1° 13.9° 16.9° 23.9° 5.5km/h dir SSE 22.5km/h dir SSE 14.2° 0 0 1018.4 1019.4 1021.3 62% 74.6% 85% 615 20 962
03/11/20 8.8° 11.3° 15.3° 8.3° 11.5° 15° 3.4km/h dir O 19.3km/h dir O 8.9° 2.6 2.6 2.4mm/h 1021.4 1025.8 1028.4 79% 91.9% 95% 146 6 165
04/11/20 6.7° 8.8° 10.9° 6.1° 8.9° 12.2° 8.2km/h dir ONO 27.4km/h dir NNE 4.7° 0.2 2.8 1026.4 1027.9 1031.2 79% 86.9% 94% 642 17 260
05/11/20 8.9° 13.4° 3.9° 8.8° 17.2° 2.9km/h dir O 14.5km/h dir ONO 5.1° 0 2.8 1030.4 1031.5 1033.4 74% 86.6% 94% 485 26 062
06/11/20 2.2° 9.9° 18.4° 1.7° 9.8° 19.4° 3.4km/h dir SE 24.1km/h dir SSE 2.2° 0.2 3 1024.9 1027.9 1030.6 68% 85.1% 97% 455 27 854
07/11/20 13.2° 15.3° 18.2° 12.2° 14.8° 19.4° 9.3km/h dir SE 38.6km/h dir ESE 11.6° 0 3 1020.7 1022.7 1025 64% 74.3% 84% 475 17 836
08/11/20 11.7° 13.9° 16.6° 10° 13.8° 17.2° 5.5km/h dir SE 24.1km/h dir ESE 11.3° 2.4 5.4 5.6mm/h 1021.3 1022.2 1023.7 74% 84.8% 93% 281 11 674
09/11/20 8.1° 12.3° 19.1° 7.2° 11.6° 21.1° 2.4km/h dir ESE 24.1km/h dir S 8.1° 0.2 5.6 1021.2 1022.1 1023.4 68% 87.7% 96% 482 26 252
10/11/20 6.4° 9.6° 14.9° 5.6° 9.5° 16.7° 0.5km/h dir SO 8km/h dir NE 6.4° 0.2 5.8 1023.5 1025.4 1027.1 85% 94.1% 97% 371 13 439
11/11/20 7.8° 9.7° 11° 6.7° 10.3° 12.8° 1.6km/h dir SE 14.5km/h dir SSE 7.8° 0.2 6 1022 1024.4 1027.1 91% 95.5% 97% 114 6 087
12/11/20 7.3° 11.6° 17.1° 6.7° 11.6° 18.9° 3.5km/h dir SE 19.3km/h dir SSE 7.3° 0.2 6.2 1021.1 1021.9 1023.3 71% 88.2% 96% 563 22 849
13/11/20 8.6° 13.5° 16.7° 7.2° 13.4° 18.3° 8.7km/h dir SE 40.2km/h dir SSE 8.6° 0 6.2 1019.7 1020.6 1021.5 67% 80.6% 95% 429 22 006
14/11/20 12.2° 14.4° 18.6° 11.7° 14.1° 20° 9.8km/h dir SE 41.8km/h dir SSE 10.9° 0 6.2 1017.1 1019.1 1021.2 66% 79.8% 87% 425 26 453
15/11/20 12.8° 14.5° 18.1° 11.7° 14.4° 18.9° 13.7km/h dir SSE 54.7km/h dir SE 11.2° 7.6 13.8 16.4mm/h 1012 1014.7 1018.4 62% 79% 94% 436 22 006
16/11/20 5.2° 9.9° 13.4° 4.4° 10.1° 15° 2.1km/h dir SE 25.7km/h dir OSO 5.2° 2 15.8 33.6mm/h 1015.1 1022.4 1027.1 72% 88.8% 96% 265 11 119
17/11/20 2.4° 6.8° 13.8° 2.2° 6.9° 17.2° 1.3km/h dir NNE 12.9km/h dir NNE 2.4° 0.2 16 1027.1 1028.4 1030.5 71% 90.1% 97% 431 24 310
18/11/20 1.8° 9.9° 18.3° 1.1° 9.4° 19.4° 4.8km/h dir SE 33.8km/h dir SSE 1.6° 0.2 16.2 1024.3 1026.2 1028.3 46% 74.4% 97% 422 26 228
19/11/20 6.3° 10° 12.4° 4.4° 9.8° 15° 5km/h dir SE 25.7km/h dir OSO 5.3° 1.6 17.8 4.2mm/h 1025.6 1029.2 1032.8 62% 76.7% 93% 559 13 337
20/11/20 2.3° 6.7° 9.8° 1.1° 11.7° 9.2km/h dir ONO 33.8km/h dir N 0.6° 1.6 19.4 0.8mm/h 1031.7 1032.8 1033.7 62% 82.7% 94% 499 23 001
21/11/20 -1.4° 0.9° 4.2° -1.7° 7.2° 2.9km/h dir ONO 14.5km/h dir ESE -3.1° 0 19.4 1032 1033.2 1034.7 83% 91.6% 95% 401 10 662
22/11/20 -2.8° 0.3° 7.2° -3.3° 0.8° 9.4° 1.1km/h dir O 9.7km/h dir O -3° 0.2 19.6 1028.4 1030.5 1032 80% 93.2% 96% 492 20 431
23/11/20 -2.3° 1.1° 5.7° -2.2° 1.9° 7.8° 1.9km/h dir O 12.9km/h dir ONO -3.5° 0.2 19.8 1028.7 1029.6 1031 89% 94.7% 96% 501 20 584
24/11/20 0.5° 3.4° 8.8° 0.6° 3.9° 10.6° 2.4km/h dir SE 22.5km/h dir ESE -0.6° 0.2 20 1020.2 1024.4 1028.8 81% 93.5% 97% 450 18 121
25/11/20 6.8° 9.8° 14.4° 3.3° 8.9° 15.6° 9km/h dir SE 35.4km/h dir ESE 5.8° 0 20 1017.7 1019.2 1020.2 52% 68.3% 83% 468 22 346
26/11/20 0.9° 6.6° 15.3° 5.4° 16.1° 1.9km/h dir SSE 11.3km/h dir ESE 0.9° 0 20 1019.4 1020.5 1021.9 59% 80.9% 93% 380 22 826
27/11/20 7.1° 16.2° 1.1° 6.2° 17.2° 1.6km/h dir SE 14.5km/h dir ESE 1.7° 0 20 1015.8 1017.5 1020.2 56% 83.5% 95% 371 21 934
28/11/20 -1.2° 1.7° 6.5° -1.7° 1.7° 7.8° 0.6km/h dir SE 8km/h dir NNE -1.2° 0.2 20.2 1012.6 1014.6 1016.1 90% 94.3% 96% 260 9 788
29/11/20 -1.7° 1.6° 3.2° -2.2° 2.3° 4.4° 1.3km/h dir SO 16.1km/h dir N -1.7° 0 20.2 1015.6 1020 1024.4 87% 94.4% 96% 79 3 967
30/11/20 -1.1° 2.3° 3.4° -1.7° 2.6° 4.4° 3.4km/h dir O 12.9km/h dir ONO -1.7° 0 20.2 1024.3 1026.3 1027.8 80% 85.4% 92% 100 5 921

RETOUR ACCUEIL


Date de création : 01/12/2020 : 22:14
Catégorie : - MOIS PASSES - NOVEMBRE 2020
Page lue 650 fois